createdAt,value
2017-08-08T00:00:43.616Z,59.7
2017-08-08T00:01:45.255Z,59.2
2017-08-08T00:02:46.893Z,59.6
2017-08-08T00:03:48.533Z,59.5
2017-08-08T00:04:50.170Z,59.2
2017-08-08T00:05:51.805Z,59.3
2017-08-08T00:06:53.446Z,59.2
2017-08-08T00:07:55.079Z,59.4
2017-08-08T00:08:56.718Z,59.4
2017-08-08T00:09:58.355Z,59.3
2017-08-08T00:10:59.994Z,59.6
2017-08-08T00:12:01.634Z,59.6
2017-08-08T00:13:03.270Z,59.5
2017-08-08T00:14:04.907Z,59.4
2017-08-08T00:15:06.540Z,59.3
2017-08-08T00:16:08.178Z,59.3
2017-08-08T00:17:09.815Z,59.8
2017-08-08T00:18:11.456Z,59.6
2017-08-08T00:19:13.093Z,59.3
2017-08-08T00:20:14.730Z,59.4
2017-08-08T00:21:16.368Z,59.9
2017-08-08T00:22:18.011Z,59.8
2017-08-08T00:23:19.640Z,59.9
2017-08-08T00:24:21.285Z,59.8
2017-08-08T00:25:22.922Z,59.6
2017-08-08T00:26:24.559Z,59.7
2017-08-08T00:27:26.195Z,59.6
2017-08-08T00:28:27.830Z,59.6
2017-08-08T00:29:29.469Z,59.3
2017-08-08T00:30:31.103Z,59.5
2017-08-08T00:31:32.742Z,59.3
2017-08-08T00:32:34.380Z,59.3
2017-08-08T00:33:36.024Z,59.7
2017-08-08T00:34:37.653Z,59.7
2017-08-08T00:35:39.287Z,59.4
2017-08-08T00:36:40.924Z,59.7
2017-08-08T00:37:42.559Z,59.2
2017-08-08T00:38:44.197Z,59.7
2017-08-08T00:39:45.835Z,59.3
2017-08-08T00:40:47.476Z,59.3
2017-08-08T00:41:49.110Z,59.5
2017-08-08T00:42:50.745Z,59.3
2017-08-08T00:43:52.379Z,59.5
2017-08-08T00:44:54.016Z,59.4
2017-08-08T00:45:55.653Z,59.2
2017-08-08T00:46:57.297Z,59.4
2017-08-08T00:47:58.937Z,59.3
2017-08-08T00:49:00.576Z,59.6
2017-08-08T00:50:02.213Z,59.3
2017-08-08T00:51:03.849Z,59.3
2017-08-08T00:52:05.489Z,59.3
2017-08-08T00:53:07.122Z,59.4
2017-08-08T00:54:08.762Z,59.6
2017-08-08T00:55:10.406Z,59.4
2017-08-08T00:56:12.042Z,59.4
2017-08-08T00:57:13.680Z,59.6
2017-08-08T00:58:15.312Z,59.5
2017-08-08T00:59:16.950Z,59.4
2017-08-08T01:00:18.586Z,59.2
2017-08-08T01:01:20.226Z,59.5
2017-08-08T01:02:21.865Z,59.3
2017-08-08T01:03:23.500Z,59.4
2017-08-08T01:04:25.137Z,59.2
2017-08-08T01:05:26.779Z,59.5
2017-08-08T01:06:28.417Z,59.5
2017-08-08T01:07:30.056Z,59.4
2017-08-08T01:08:31.693Z,59.3
2017-08-08T01:09:33.334Z,59.3
2017-08-08T01:10:34.970Z,59.3
2017-08-08T01:11:36.606Z,59.5
2017-08-08T01:12:38.244Z,59.1
2017-08-08T01:13:39.876Z,59.1
2017-08-08T01:14:41.520Z,59.3
2017-08-08T01:15:43.160Z,59.4
2017-08-08T01:16:44.796Z,59.3
2017-08-08T01:17:46.431Z,59.5
2017-08-08T01:18:48.066Z,59.2
2017-08-08T01:19:49.705Z,59.5
2017-08-08T01:20:51.345Z,59.3
2017-08-08T01:21:52.980Z,59.3
2017-08-08T01:22:54.618Z,59.2
2017-08-08T01:23:56.256Z,59.4
2017-08-08T01:24:57.891Z,59.5
2017-08-08T01:25:59.529Z,59.3
2017-08-08T01:27:01.168Z,59.2
2017-08-08T01:28:02.805Z,59.4
2017-08-08T01:29:04.442Z,59.3
2017-08-08T01:30:06.079Z,59.5
2017-08-08T01:31:07.721Z,59.5
2017-08-08T01:32:09.354Z,59.5
2017-08-08T01:33:10.991Z,59.2
2017-08-08T01:34:12.627Z,59.3
2017-08-08T01:35:14.266Z,59.3
2017-08-08T01:36:15.905Z,59.3
2017-08-08T01:37:17.541Z,59.3
2017-08-08T01:38:19.178Z,59.5
2017-08-08T01:39:20.814Z,59.7
2017-08-08T01:40:22.451Z,59.2
2017-08-08T01:41:24.087Z,59.7
2017-08-08T01:42:25.724Z,59.2
2017-08-08T01:43:27.360Z,59.4
2017-08-08T01:44:28.999Z,59.4
2017-08-08T01:45:30.638Z,59.7
2017-08-08T01:46:32.263Z,59.4
2017-08-08T01:47:33.912Z,59.4
2017-08-08T01:48:35.547Z,59.4
2017-08-08T01:49:37.185Z,59.3
2017-08-08T01:50:38.825Z,59.5
2017-08-08T01:51:40.465Z,59.4
2017-08-08T01:52:42.107Z,59.5
2017-08-08T01:53:43.739Z,59.5
2017-08-08T01:54:45.373Z,59.4
2017-08-08T01:55:47.010Z,59.7
2017-08-08T01:56:48.647Z,59.4
2017-08-08T01:57:50.296Z,59.4
2017-08-08T01:58:51.928Z,59.4
2017-08-08T01:59:53.566Z,59.3
2017-08-08T02:00:55.203Z,59.3
2017-08-08T02:01:56.837Z,59.3
2017-08-08T02:02:58.474Z,59.2
2017-08-08T02:04:00.109Z,59.4
2017-08-08T02:05:01.749Z,59.3
2017-08-08T02:06:03.382Z,59.2
2017-08-08T02:07:05.024Z,59.4
2017-08-08T02:08:06.658Z,59.3
2017-08-08T02:09:08.295Z,59.2
2017-08-08T02:10:09.929Z,59.3
2017-08-08T02:11:11.570Z,59.7
2017-08-08T02:12:13.209Z,59.3
2017-08-08T02:13:14.847Z,59.2
2017-08-08T02:14:16.485Z,59.5
2017-08-08T02:15:18.118Z,59.4
2017-08-08T02:16:19.755Z,59.4
2017-08-08T02:17:21.389Z,59.6
2017-08-08T02:18:23.024Z,59.5
2017-08-08T02:19:24.661Z,59.4
2017-08-08T02:20:26.300Z,59.3
2017-08-08T02:21:27.940Z,59.3
2017-08-08T02:22:29.577Z,59.4
2017-08-08T02:23:31.216Z,59.3
2017-08-08T02:24:32.853Z,59.5
2017-08-08T02:25:34.490Z,59.3
2017-08-08T02:26:36.133Z,59.2
2017-08-08T02:27:37.769Z,59.5
2017-08-08T02:28:39.411Z,59.3
2017-08-08T02:29:41.049Z,59.5
2017-08-08T02:30:42.683Z,59.3
2017-08-08T02:31:44.323Z,59.5
2017-08-08T02:32:45.959Z,59.5
2017-08-08T02:33:47.598Z,59.3
2017-08-08T02:34:49.239Z,59.5
2017-08-08T02:35:50.877Z,59.6
2017-08-08T02:36:52.515Z,59.1
2017-08-08T02:37:54.150Z,59.3
2017-08-08T02:38:55.787Z,59.3
2017-08-08T02:39:57.425Z,59.3
2017-08-08T02:40:59.062Z,59.3
2017-08-08T02:42:00.699Z,59.2
2017-08-08T02:43:02.350Z,59.3
2017-08-08T02:44:03.980Z,59.4
2017-08-08T02:45:05.620Z,59.3
2017-08-08T02:46:07.253Z,59.4
2017-08-08T02:47:08.892Z,59.2
2017-08-08T02:48:10.531Z,59.4
2017-08-08T02:49:12.171Z,59.4
2017-08-08T02:50:13.808Z,59.4
2017-08-08T02:51:15.444Z,59.2
2017-08-08T02:52:17.079Z,59.5
2017-08-08T02:53:18.717Z,59.4
2017-08-08T02:54:20.359Z,59.5
2017-08-08T02:55:21.992Z,59.3
2017-08-08T02:56:23.631Z,59.3
2017-08-08T02:57:25.269Z,59.2
2017-08-08T02:58:26.907Z,59.4
2017-08-08T02:59:28.545Z,59.4
2017-08-08T03:00:30.184Z,59.2
2017-08-08T03:01:31.819Z,59.5
2017-08-08T03:02:33.459Z,59.4
2017-08-08T03:03:35.097Z,59.3
2017-08-08T03:04:36.753Z,59.3
2017-08-08T03:05:38.370Z,59.4
2017-08-08T03:06:40.008Z,59.5
2017-08-08T03:07:41.644Z,59.3
2017-08-08T03:08:43.278Z,59.3
2017-08-08T03:09:44.920Z,59.2
2017-08-08T03:10:46.557Z,59.4
2017-08-08T03:11:48.199Z,59.4
2017-08-08T03:12:49.835Z,59.3
2017-08-08T03:13:51.474Z,59.3
2017-08-08T03:14:53.112Z,59.3
2017-08-08T03:15:54.749Z,59.4
2017-08-08T03:16:56.390Z,59.6
2017-08-08T03:17:58.028Z,59.3
2017-08-08T03:18:59.665Z,59.4
2017-08-08T03:20:01.302Z,59.5
2017-08-08T03:21:02.939Z,59.3
2017-08-08T03:22:04.572Z,59.3
2017-08-08T03:23:06.215Z,59.7
2017-08-08T03:24:07.852Z,59.5
2017-08-08T03:25:09.489Z,59.3
2017-08-08T03:26:11.130Z,59.2
2017-08-08T03:27:12.765Z,59.2
2017-08-08T03:28:14.403Z,59.5
2017-08-08T03:29:16.037Z,59.5
2017-08-08T03:30:17.678Z,59.3
2017-08-08T03:31:19.311Z,59.3
2017-08-08T03:32:20.947Z,59.3
2017-08-08T03:33:22.587Z,59.5
2017-08-08T03:34:24.221Z,59.2
2017-08-08T03:35:25.862Z,59.5
2017-08-08T03:36:27.497Z,59.5
2017-08-08T03:37:29.133Z,59.5
2017-08-08T03:38:30.779Z,59.3
2017-08-08T03:39:32.411Z,59.5
2017-08-08T03:40:34.051Z,59.1
2017-08-08T03:41:35.687Z,59.0
2017-08-08T03:42:37.319Z,59.1
2017-08-08T03:43:38.956Z,59.3
2017-08-08T03:44:40.595Z,59.1
2017-08-08T03:45:42.233Z,59.1
2017-08-08T03:46:43.868Z,59.1
2017-08-08T03:47:45.509Z,59.5
2017-08-08T03:48:47.145Z,59.2
2017-08-08T03:49:48.780Z,59.5
2017-08-08T03:50:50.419Z,59.2
2017-08-08T03:51:52.056Z,59.2
2017-08-08T03:52:53.698Z,59.1
2017-08-08T03:53:55.330Z,59.0
2017-08-08T03:54:56.972Z,59.0
2017-08-08T03:55:58.610Z,59.1
2017-08-08T03:57:00.245Z,59.4
2017-08-08T03:58:01.881Z,59.0
2017-08-08T03:59:03.520Z,59.0
2017-08-08T04:00:05.156Z,59.4
2017-08-08T04:01:06.794Z,58.9
2017-08-08T04:02:08.435Z,59.1
2017-08-08T04:03:10.070Z,59.3
2017-08-08T04:04:11.702Z,59.0
2017-08-08T04:05:13.337Z,59.3
2017-08-08T04:06:14.974Z,59.0
2017-08-08T04:07:16.617Z,59.1
2017-08-08T04:08:18.252Z,59.3
2017-08-08T04:09:19.889Z,59.0
2017-08-08T04:10:21.523Z,59.0
2017-08-08T04:11:23.159Z,59.0
2017-08-08T04:12:24.795Z,59.4
2017-08-08T04:13:26.433Z,59.3
2017-08-08T04:14:28.074Z,59.6
2017-08-08T04:15:29.714Z,59.3
2017-08-08T04:16:31.349Z,59.3
2017-08-08T04:17:32.987Z,59.6
2017-08-08T04:18:34.624Z,59.5
2017-08-08T04:19:36.263Z,59.5
2017-08-08T04:20:37.902Z,59.4
2017-08-08T04:21:39.539Z,59.5
2017-08-08T04:22:41.175Z,59.4
2017-08-08T04:23:42.815Z,59.5
2017-08-08T04:24:44.453Z,59.6
2017-08-08T04:25:46.090Z,59.3
2017-08-08T04:26:47.726Z,59.5
2017-08-08T04:27:49.379Z,59.3
2017-08-08T04:28:51.003Z,59.4
2017-08-08T04:29:52.640Z,59.4
2017-08-08T04:30:54.282Z,59.5
2017-08-08T04:31:55.917Z,59.2
2017-08-08T04:32:57.557Z,59.5
2017-08-08T04:33:59.195Z,59.6
2017-08-08T04:35:00.830Z,59.3
2017-08-08T04:36:02.467Z,59.5
2017-08-08T04:37:04.106Z,59.5
2017-08-08T04:38:05.743Z,59.3
2017-08-08T04:39:07.379Z,59.6
2017-08-08T04:40:09.013Z,59.3
2017-08-08T04:41:10.647Z,59.3
2017-08-08T04:42:12.284Z,59.2
2017-08-08T04:43:13.924Z,59.3
2017-08-08T04:44:15.562Z,59.2
2017-08-08T04:45:17.201Z,59.3
2017-08-08T04:46:18.834Z,59.3
2017-08-08T04:47:20.470Z,59.2
2017-08-08T04:48:22.107Z,59.3
2017-08-08T04:49:23.743Z,59.5
2017-08-08T04:50:25.381Z,59.5
2017-08-08T04:51:27.013Z,59.5
2017-08-08T04:52:28.660Z,59.4
2017-08-08T04:53:30.296Z,59.4
2017-08-08T04:54:31.932Z,59.6
2017-08-08T04:55:33.569Z,59.5
2017-08-08T04:56:35.206Z,59.5
2017-08-08T04:57:36.844Z,59.4
2017-08-08T04:58:38.479Z,59.4
2017-08-08T04:59:40.125Z,59.4
2017-08-08T05:00:41.762Z,59.2
2017-08-08T05:01:43.393Z,59.2
2017-08-08T05:02:45.030Z,59.7
2017-08-08T05:03:46.667Z,59.3
2017-08-08T05:04:48.304Z,59.6
2017-08-08T05:05:49.943Z,59.6
2017-08-08T05:06:51.589Z,59.4
2017-08-08T05:07:53.222Z,59.3
2017-08-08T05:08:54.859Z,59.5
2017-08-08T05:09:56.499Z,59.5
2017-08-08T05:10:58.137Z,59.5
2017-08-08T05:11:59.777Z,59.3
2017-08-08T05:13:01.415Z,59.3
2017-08-08T05:14:03.054Z,59.4
2017-08-08T05:15:04.693Z,59.3
2017-08-08T05:16:06.330Z,59.2
2017-08-08T05:17:07.968Z,59.3
2017-08-08T05:18:09.608Z,59.6
2017-08-08T05:19:11.248Z,59.5
2017-08-08T05:20:12.886Z,59.4
2017-08-08T05:21:14.542Z,59.3
2017-08-08T05:22:16.183Z,59.5
2017-08-08T05:23:17.821Z,59.4
2017-08-08T05:24:19.458Z,59.3
2017-08-08T05:25:21.102Z,59.6
2017-08-08T05:26:22.737Z,59.6
2017-08-08T05:27:24.377Z,59.3
2017-08-08T05:28:26.015Z,59.7
2017-08-08T05:29:27.654Z,59.4
2017-08-08T05:30:29.287Z,59.5
2017-08-08T05:31:30.931Z,59.3
2017-08-08T05:32:32.567Z,59.4
2017-08-08T05:33:34.207Z,59.5
2017-08-08T05:34:35.849Z,59.5
2017-08-08T05:35:37.486Z,59.5
2017-08-08T05:36:39.276Z,59.4
2017-08-08T05:37:40.911Z,59.2
2017-08-08T05:38:42.548Z,59.6
2017-08-08T05:39:44.192Z,59.8
2017-08-08T05:40:45.832Z,59.8
2017-08-08T05:41:47.466Z,59.9
2017-08-08T05:42:49.108Z,60.0
2017-08-08T05:43:50.746Z,59.8
2017-08-08T05:44:52.389Z,59.8
2017-08-08T05:45:54.022Z,59.8
2017-08-08T05:46:55.664Z,59.7
2017-08-08T05:47:57.302Z,60.1
2017-08-08T05:48:58.940Z,60.1
2017-08-08T05:50:00.584Z,60.0
2017-08-08T05:51:02.219Z,60.1
2017-08-08T05:52:03.858Z,59.8
2017-08-08T05:53:05.496Z,59.9
2017-08-08T05:54:07.133Z,60.1
2017-08-08T05:55:08.773Z,60.3
2017-08-08T05:56:10.412Z,60.4
2017-08-08T05:57:12.056Z,60.3
2017-08-08T05:58:13.692Z,60.3
2017-08-08T05:59:15.330Z,60.1
2017-08-08T06:00:16.970Z,60.1
2017-08-08T06:01:18.604Z,60.2
2017-08-08T06:02:20.242Z,60.2
2017-08-08T06:03:21.882Z,60.1
2017-08-08T06:04:23.524Z,60.2
2017-08-08T06:05:25.160Z,60.3
2017-08-08T06:06:26.800Z,60.2
2017-08-08T06:07:28.445Z,60.2
2017-08-08T06:08:30.082Z,60.3
2017-08-08T06:09:31.722Z,60.2
2017-08-08T06:10:33.362Z,60.3
2017-08-08T06:11:35.005Z,60.3
2017-08-08T06:12:36.643Z,60.4
2017-08-08T06:13:38.278Z,60.4
2017-08-08T06:14:39.917Z,60.4
2017-08-08T06:15:41.552Z,60.4
2017-08-08T06:16:43.191Z,60.4
2017-08-08T06:17:44.834Z,60.4
2017-08-08T06:18:46.475Z,60.4
2017-08-08T06:19:48.110Z,60.5
2017-08-08T06:20:49.748Z,60.5
2017-08-08T06:21:51.386Z,60.1
2017-08-08T06:22:53.021Z,60.0
2017-08-08T06:23:54.661Z,60.0
2017-08-08T06:24:56.304Z,60.4
2017-08-08T06:25:57.950Z,60.1
2017-08-08T06:26:59.604Z,60.4
2017-08-08T06:28:01.220Z,60.5
2017-08-08T06:29:02.861Z,60.5
2017-08-08T06:30:04.498Z,60.5
2017-08-08T06:31:06.137Z,60.5
2017-08-08T06:32:07.776Z,60.4
2017-08-08T06:33:09.422Z,60.1
2017-08-08T06:34:11.057Z,60.3
2017-08-08T06:35:12.695Z,60.3
2017-08-08T06:36:14.335Z,60.4
2017-08-08T06:37:15.975Z,60.4
2017-08-08T06:38:17.612Z,60.4
2017-08-08T06:39:19.253Z,60.2
2017-08-08T06:40:20.896Z,60.1
2017-08-08T06:41:22.528Z,60.2
2017-08-08T06:42:24.169Z,60.1
2017-08-08T06:43:25.810Z,60.2
2017-08-08T06:44:27.457Z,60.1
2017-08-08T06:45:29.093Z,60.1
2017-08-08T06:46:30.738Z,60.0
2017-08-08T06:47:32.376Z,60.1
2017-08-08T06:48:34.011Z,60.2
2017-08-08T06:49:35.645Z,60.2
2017-08-08T06:50:37.284Z,60.1
2017-08-08T06:51:38.927Z,60.2
2017-08-08T06:52:40.565Z,60.2
2017-08-08T06:53:42.209Z,60.2
2017-08-08T06:54:43.851Z,60.2
2017-08-08T06:55:45.481Z,60.2
2017-08-08T06:56:47.119Z,60.2
2017-08-08T06:57:48.752Z,60.2
2017-08-08T06:58:50.394Z,60.2
2017-08-08T06:59:52.034Z,60.2
2017-08-08T07:00:53.676Z,60.2
2017-08-08T07:01:55.314Z,60.2
2017-08-08T07:02:56.960Z,60.1
2017-08-08T07:03:58.592Z,60.1
2017-08-08T07:05:00.232Z,60.2
2017-08-08T07:06:01.869Z,60.2
2017-08-08T07:07:03.509Z,60.1
2017-08-08T07:08:05.145Z,60.1
2017-08-08T07:09:06.791Z,60.1
2017-08-08T07:10:08.436Z,60.2
2017-08-08T07:11:10.062Z,60.3
2017-08-08T07:12:11.698Z,60.3
2017-08-08T07:13:13.336Z,60.1
2017-08-08T07:14:14.979Z,60.2
2017-08-08T07:15:16.618Z,59.9
2017-08-08T07:16:18.257Z,60.1
2017-08-08T07:17:19.910Z,60.0
2017-08-08T07:18:21.548Z,60.1
2017-08-08T07:19:23.183Z,60.4
2017-08-08T07:20:24.824Z,60.0
2017-08-08T07:21:26.461Z,59.9
2017-08-08T07:22:28.097Z,60.0
2017-08-08T07:23:29.759Z,60.1
2017-08-08T07:24:31.388Z,59.9
2017-08-08T07:25:33.029Z,60.1
2017-08-08T07:26:34.662Z,59.8
2017-08-08T07:27:36.300Z,59.8
2017-08-08T07:28:37.939Z,60.1
2017-08-08T07:29:39.581Z,60.2
2017-08-08T07:30:41.220Z,59.8
2017-08-08T07:31:42.859Z,59.9
2017-08-08T07:32:44.499Z,59.9
2017-08-08T07:33:46.141Z,59.8
2017-08-08T07:34:47.774Z,60.1
2017-08-08T07:35:49.411Z,60.2
2017-08-08T07:36:51.054Z,59.8
2017-08-08T07:37:52.694Z,59.8
2017-08-08T07:38:54.329Z,59.9
2017-08-08T07:39:55.969Z,60.0
2017-08-08T07:40:57.604Z,59.8
2017-08-08T07:41:59.241Z,59.8
2017-08-08T07:43:00.879Z,59.8
2017-08-08T07:44:02.519Z,59.8
2017-08-08T07:45:04.163Z,59.8
2017-08-08T07:46:05.797Z,59.9
2017-08-08T07:47:07.438Z,59.8
2017-08-08T07:48:09.101Z,59.8
2017-08-08T07:49:10.714Z,59.8
2017-08-08T07:50:12.350Z,59.8
2017-08-08T07:51:13.993Z,59.8
2017-08-08T07:52:15.638Z,59.8
2017-08-08T07:53:17.271Z,59.8
2017-08-08T07:54:18.906Z,59.9
2017-08-08T07:55:20.556Z,60.1
2017-08-08T07:56:22.190Z,59.9
2017-08-08T07:57:23.829Z,60.0
2017-08-08T07:58:25.472Z,60.1
2017-08-08T07:59:27.111Z,60.0
2017-08-08T08:00:28.746Z,60.0
2017-08-08T08:01:30.384Z,60.1
2017-08-08T08:02:32.018Z,60.0
2017-08-08T08:03:33.655Z,60.1
2017-08-08T08:04:35.294Z,60.1
2017-08-08T08:05:36.934Z,60.2
2017-08-08T08:06:38.573Z,60.2
2017-08-08T08:07:40.216Z,60.1
2017-08-08T08:08:41.853Z,60.0
2017-08-08T08:09:43.491Z,60.1
2017-08-08T08:10:45.131Z,59.8
2017-08-08T08:11:46.769Z,59.9
2017-08-08T08:12:48.408Z,59.9
2017-08-08T08:13:50.049Z,59.8
2017-08-08T08:14:51.643Z,59.7
2017-08-08T08:15:53.278Z,59.9
2017-08-08T08:16:54.917Z,60.0
2017-08-08T08:17:56.560Z,60.1
2017-08-08T08:18:58.201Z,59.8
2017-08-08T08:19:59.840Z,60.0
2017-08-08T08:21:01.480Z,59.9
2017-08-08T08:22:03.114Z,59.9
2017-08-08T08:23:04.751Z,59.8
2017-08-08T08:24:06.391Z,59.9
2017-08-08T08:25:08.030Z,59.8
2017-08-08T08:26:09.667Z,59.8
2017-08-08T08:27:11.319Z,59.9
2017-08-08T08:28:12.958Z,59.8
2017-08-08T08:29:14.602Z,59.8
2017-08-08T08:30:16.237Z,59.8
2017-08-08T08:31:17.873Z,59.9
2017-08-08T08:32:19.513Z,59.8
2017-08-08T08:33:21.163Z,59.8
2017-08-08T08:34:22.806Z,59.9
2017-08-08T08:35:24.448Z,60.0
2017-08-08T08:36:26.087Z,60.0
2017-08-08T08:37:27.727Z,59.8
2017-08-08T08:38:29.362Z,59.9
2017-08-08T08:39:31.001Z,60.1
2017-08-08T08:40:32.638Z,59.8
2017-08-08T08:41:34.283Z,60.1
2017-08-08T08:42:35.928Z,59.8
2017-08-08T08:43:37.563Z,59.8
2017-08-08T08:44:39.197Z,59.8
2017-08-08T08:45:40.835Z,59.9
2017-08-08T08:46:42.470Z,59.8
2017-08-08T08:47:44.115Z,59.8
2017-08-08T08:48:45.755Z,59.8
2017-08-08T08:49:47.394Z,60.1
2017-08-08T08:50:49.036Z,59.8
2017-08-08T08:51:50.673Z,59.8
2017-08-08T08:52:52.311Z,59.8
2017-08-08T08:53:53.953Z,59.8
2017-08-08T08:54:55.591Z,59.8
2017-08-08T08:55:57.246Z,59.8
2017-08-08T08:56:58.884Z,59.8
2017-08-08T08:58:00.523Z,60.0
2017-08-08T08:59:02.161Z,59.8
2017-08-08T09:00:03.799Z,59.8
2017-08-08T09:01:05.438Z,59.8
2017-08-08T09:02:07.076Z,60.0
2017-08-08T09:03:08.718Z,59.6
2017-08-08T09:04:10.374Z,59.9
2017-08-08T09:05:11.988Z,59.8
2017-08-08T09:06:13.632Z,59.8
2017-08-08T09:07:15.269Z,59.8
2017-08-08T09:08:16.905Z,59.6
2017-08-08T09:09:18.544Z,59.8
2017-08-08T09:10:20.180Z,59.7
2017-08-08T09:11:21.824Z,59.9
2017-08-08T09:12:23.463Z,59.8
2017-08-08T09:13:25.098Z,59.8
2017-08-08T09:14:26.734Z,59.8
2017-08-08T09:15:28.370Z,60.0
2017-08-08T09:16:30.023Z,59.9
2017-08-08T09:17:31.661Z,59.9
2017-08-08T09:18:33.303Z,59.8
2017-08-08T09:19:34.956Z,60.1
2017-08-08T09:20:36.590Z,60.0
2017-08-08T09:21:38.225Z,59.9
2017-08-08T09:22:39.863Z,60.1
2017-08-08T09:23:41.526Z,60.1
2017-08-08T09:24:43.171Z,60.0
2017-08-08T09:25:44.809Z,60.1
2017-08-08T09:26:46.448Z,60.0
2017-08-08T09:27:48.087Z,59.8
2017-08-08T09:28:49.727Z,59.8
2017-08-08T09:29:51.368Z,60.2
2017-08-08T09:30:53.008Z,59.9
2017-08-08T09:31:54.644Z,60.0
2017-08-08T09:32:56.286Z,59.9
2017-08-08T09:33:57.920Z,60.1
2017-08-08T09:34:59.558Z,60.1
2017-08-08T09:36:01.203Z,60.2
2017-08-08T09:37:02.837Z,60.2
2017-08-08T09:38:04.473Z,59.9
2017-08-08T09:39:06.114Z,60.1
2017-08-08T09:40:07.753Z,60.1
2017-08-08T09:41:09.389Z,60.2
2017-08-08T09:42:11.023Z,60.2
2017-08-08T09:43:12.664Z,59.9
2017-08-08T09:44:14.299Z,59.9
2017-08-08T09:45:15.939Z,60.0
2017-08-08T09:46:17.576Z,59.9
2017-08-08T09:47:19.220Z,60.0
2017-08-08T09:48:20.860Z,60.0
2017-08-08T09:49:22.499Z,60.0
2017-08-08T09:50:24.137Z,60.0
2017-08-08T09:51:25.781Z,60.1
2017-08-08T09:52:27.417Z,60.0
2017-08-08T09:53:29.062Z,60.3
2017-08-08T09:54:30.712Z,60.3
2017-08-08T09:55:32.351Z,60.3
2017-08-08T09:56:33.986Z,60.1
2017-08-08T09:57:35.624Z,60.4
2017-08-08T09:58:37.263Z,60.1
2017-08-08T09:59:38.899Z,60.1
2017-08-08T10:00:40.541Z,60.3
2017-08-08T10:01:42.183Z,60.0
2017-08-08T10:02:43.818Z,60.1
2017-08-08T10:03:45.456Z,60.2
2017-08-08T10:04:47.096Z,60.1
2017-08-08T10:05:48.732Z,60.2
2017-08-08T10:06:50.371Z,60.3
2017-08-08T10:07:52.009Z,60.3
2017-08-08T10:08:53.648Z,60.3
2017-08-08T10:09:55.290Z,60.1
2017-08-08T10:10:56.923Z,60.0
2017-08-08T10:11:58.560Z,60.1
2017-08-08T10:13:00.196Z,60.1
2017-08-08T10:14:01.835Z,60.0
2017-08-08T10:15:03.477Z,60.0
2017-08-08T10:16:05.119Z,60.0
2017-08-08T10:17:06.754Z,59.9
2017-08-08T10:18:08.392Z,60.0
2017-08-08T10:19:10.028Z,60.1
2017-08-08T10:20:11.674Z,59.9
2017-08-08T10:21:13.311Z,60.0
2017-08-08T10:22:14.950Z,60.0
2017-08-08T10:23:16.593Z,60.0
2017-08-08T10:24:18.225Z,59.9
2017-08-08T10:25:19.862Z,60.0
2017-08-08T10:26:21.498Z,60.0
2017-08-08T10:27:23.134Z,59.9
2017-08-08T10:28:24.786Z,60.1
2017-08-08T10:29:26.419Z,60.1
2017-08-08T10:30:28.062Z,59.9
2017-08-08T10:31:29.696Z,60.1
2017-08-08T10:32:31.334Z,60.2
2017-08-08T10:33:32.976Z,60.2
2017-08-08T10:34:34.613Z,60.1
2017-08-08T10:35:36.256Z,59.8
2017-08-08T10:36:37.896Z,60.1
2017-08-08T10:37:39.535Z,59.9
2017-08-08T10:38:41.178Z,59.9
2017-08-08T10:39:42.811Z,60.1
2017-08-08T10:40:44.459Z,60.0
2017-08-08T10:41:46.099Z,60.2
2017-08-08T10:42:47.736Z,60.2
2017-08-08T10:43:49.375Z,60.2
2017-08-08T10:44:51.018Z,60.1
2017-08-08T10:45:52.654Z,60.1
2017-08-08T10:46:54.294Z,59.8
2017-08-08T10:47:55.932Z,59.7
2017-08-08T10:48:57.575Z,59.5
2017-08-08T10:49:59.211Z,59.7
2017-08-08T10:51:00.852Z,60.0
2017-08-08T10:52:02.493Z,60.0
2017-08-08T10:53:04.131Z,59.7
2017-08-08T10:54:05.763Z,59.9
2017-08-08T10:55:07.402Z,59.9
2017-08-08T10:56:09.039Z,59.9
2017-08-08T10:57:10.681Z,59.8
2017-08-08T10:58:12.316Z,59.8
2017-08-08T10:59:13.953Z,59.8
2017-08-08T11:00:15.645Z,59.7
2017-08-08T11:01:17.284Z,59.8
2017-08-08T11:02:19.474Z,59.7
2017-08-08T11:03:21.077Z,59.7
2017-08-08T11:04:22.729Z,59.8
2017-08-08T11:05:24.368Z,59.8
2017-08-08T11:06:26.007Z,59.7
2017-08-08T11:07:27.641Z,59.6
2017-08-08T11:08:29.284Z,59.6
2017-08-08T11:09:30.920Z,59.7
2017-08-08T11:10:32.554Z,59.7
2017-08-08T11:11:34.202Z,60.0
2017-08-08T11:12:35.843Z,59.9
2017-08-08T11:13:37.488Z,59.7
2017-08-08T11:14:39.119Z,59.6
2017-08-08T11:15:40.776Z,60.0
2017-08-08T11:16:42.416Z,59.7
2017-08-08T11:17:44.055Z,59.9
2017-08-08T11:18:45.698Z,59.8
2017-08-08T11:19:47.337Z,60.0
2017-08-08T11:20:48.977Z,60.0
2017-08-08T11:21:50.611Z,60.1
2017-08-08T11:22:52.247Z,60.1
2017-08-08T11:23:53.890Z,60.0
2017-08-08T11:24:55.525Z,60.1
2017-08-08T11:25:57.169Z,59.8
2017-08-08T11:26:58.809Z,60.0
2017-08-08T11:28:00.450Z,59.9
2017-08-08T11:29:02.095Z,60.1
2017-08-08T11:30:03.730Z,60.0
2017-08-08T11:31:05.356Z,60.0
2017-08-08T11:32:06.992Z,59.8
2017-08-08T11:33:08.642Z,60.1
2017-08-08T11:34:10.275Z,59.9
2017-08-08T11:35:11.921Z,60.2
2017-08-08T11:36:13.556Z,59.8
2017-08-08T11:37:15.196Z,59.8
2017-08-08T11:38:16.832Z,60.0
2017-08-08T11:39:18.469Z,60.0
2017-08-08T11:40:20.112Z,59.9
2017-08-08T11:41:21.750Z,59.8
2017-08-08T11:42:23.388Z,59.8
2017-08-08T11:43:25.031Z,59.7
2017-08-08T11:44:26.670Z,59.8
2017-08-08T11:45:28.310Z,60.0
2017-08-08T11:46:29.948Z,59.8
2017-08-08T11:47:31.589Z,59.8
2017-08-08T11:48:33.248Z,59.8
2017-08-08T11:49:34.894Z,59.9
2017-08-08T11:50:36.530Z,59.9
2017-08-08T11:51:38.168Z,59.9
2017-08-08T11:52:39.803Z,59.6
2017-08-08T11:53:41.442Z,59.8
2017-08-08T11:54:43.086Z,60.0
2017-08-08T11:55:44.725Z,59.8
2017-08-08T11:56:46.367Z,59.9
2017-08-08T11:57:48.005Z,59.6
2017-08-08T11:58:49.642Z,59.7
2017-08-08T11:59:51.281Z,59.8
2017-08-08T12:00:52.918Z,59.7
2017-08-08T12:01:54.556Z,59.4
2017-08-08T12:02:56.197Z,59.8
2017-08-08T12:03:57.840Z,59.4
2017-08-08T12:04:59.474Z,59.7
2017-08-08T12:06:01.114Z,59.7
2017-08-08T12:07:02.754Z,59.7
2017-08-08T12:08:04.386Z,59.8
2017-08-08T12:09:06.027Z,59.8
2017-08-08T12:10:07.668Z,59.9
2017-08-08T12:11:09.311Z,59.7
2017-08-08T12:12:10.940Z,60.2
2017-08-08T12:13:12.581Z,60.1
2017-08-08T12:14:14.219Z,59.9
2017-08-08T12:15:15.859Z,59.9
2017-08-08T12:16:17.501Z,59.9
2017-08-08T12:17:19.138Z,59.8
2017-08-08T12:18:20.784Z,59.8
2017-08-08T12:19:22.427Z,59.7
2017-08-08T12:20:24.060Z,59.8
2017-08-08T12:21:25.700Z,59.7
2017-08-08T12:22:27.343Z,59.7
2017-08-08T12:23:28.985Z,59.7
2017-08-08T12:24:30.623Z,59.8
2017-08-08T12:25:32.265Z,59.8
2017-08-08T12:26:33.905Z,59.8
2017-08-08T12:27:35.545Z,59.9
2017-08-08T12:28:37.183Z,60.1
2017-08-08T12:29:38.821Z,60.0
2017-08-08T12:30:40.457Z,60.4
2017-08-08T12:31:42.097Z,60.1
2017-08-08T12:32:43.741Z,60.3
2017-08-08T12:33:45.379Z,60.2
2017-08-08T12:34:47.017Z,60.1
2017-08-08T12:35:48.659Z,60.2
2017-08-08T12:36:50.295Z,60.1
2017-08-08T12:37:51.932Z,60.1
2017-08-08T12:38:53.572Z,60.3
2017-08-08T12:39:55.211Z,60.4
2017-08-08T12:40:56.851Z,60.5
2017-08-08T12:41:58.487Z,60.1
2017-08-08T12:43:00.122Z,60.5
2017-08-08T12:44:01.764Z,60.2
2017-08-08T12:45:03.400Z,60.2
2017-08-08T12:46:05.044Z,60.1
2017-08-08T12:47:06.684Z,60.1
2017-08-08T12:48:08.321Z,60.2
2017-08-08T12:49:09.957Z,60.2
2017-08-08T12:50:11.609Z,60.1
2017-08-08T12:51:13.245Z,60.4
2017-08-08T12:52:14.884Z,60.1
2017-08-08T12:53:16.525Z,60.2
2017-08-08T12:54:18.166Z,60.3
2017-08-08T12:55:19.804Z,60.3
2017-08-08T12:56:21.440Z,60.3
2017-08-08T12:57:23.076Z,60.4
2017-08-08T12:58:24.713Z,60.3
2017-08-08T12:59:26.351Z,60.6
2017-08-08T13:00:28.000Z,60.2
2017-08-08T13:01:29.644Z,60.1
2017-08-08T13:02:31.280Z,60.5
2017-08-08T13:03:32.917Z,60.6
2017-08-08T13:04:34.551Z,60.2
2017-08-08T13:05:36.192Z,60.3
2017-08-08T13:06:37.834Z,60.6
2017-08-08T13:07:39.475Z,60.2
2017-08-08T13:08:41.124Z,60.5
2017-08-08T13:09:42.759Z,60.2
2017-08-08T13:10:44.396Z,60.3
2017-08-08T13:11:46.036Z,60.3
2017-08-08T13:12:47.673Z,60.4
2017-08-08T13:13:49.310Z,60.3
2017-08-08T13:14:50.948Z,60.2
2017-08-08T13:15:52.604Z,60.3
2017-08-08T13:16:54.230Z,60.2
2017-08-08T13:17:55.864Z,60.3
2017-08-08T13:18:57.502Z,60.1
2017-08-08T13:19:59.142Z,60.6
2017-08-08T13:21:00.780Z,60.1
2017-08-08T13:22:02.418Z,60.1
2017-08-08T13:23:04.062Z,60.1
2017-08-08T13:24:05.699Z,60.2
2017-08-08T13:25:07.335Z,60.3
2017-08-08T13:26:08.974Z,60.4
2017-08-08T13:27:10.620Z,60.4
2017-08-08T13:28:12.256Z,60.7
2017-08-08T13:29:13.899Z,60.8
2017-08-08T13:30:15.537Z,60.5
2017-08-08T13:31:17.170Z,60.5
2017-08-08T13:32:18.808Z,60.5
2017-08-08T13:33:20.448Z,60.7
2017-08-08T13:34:22.093Z,60.4
2017-08-08T13:35:23.730Z,60.4
2017-08-08T13:36:25.368Z,60.8
2017-08-08T13:37:27.009Z,61.0
2017-08-08T13:38:28.649Z,60.5
2017-08-08T13:39:30.289Z,60.4
2017-08-08T13:40:31.924Z,60.4